Time;durP1;ratioP1;P1;durP2;ratioP2;P2;SDS_P1;SDS_P2;PMS_P1;PMS_P2;Temp;Humidity;BMP_temperature;BMP_pressure;BME280_temperature;BME280_humidity;BME280_pressure;Samples;Min_cycle;Max_cycle;Signal;HPM_P1;HPM_P2
2022/01/10 00:00:55;;;;;;;23.15;9.82;;;;;;;-5.86;81.29;99194.06;5098577;27;20118;-70
2022/01/10 00:03:22;;;;;;;19.20;9.02;;;;;;;-5.78;80.78;99201.78;5117114;27;20030;-72
2022/01/10 00:05:47;;;;;;;15.50;8.18;;;;;;;-5.71;80.36;99196.47;5116750;27;20046;-74
2022/01/10 00:08:14;;;;;;;19.83;8.57;;;;;;;-5.66;80.09;99192.09;5117365;27;20054;-70
2022/01/10 00:10:39;;;;;;;15.48;7.80;;;;;;;-5.62;79.89;99193.75;5098513;27;20145;-68
2022/01/10 00:13:04;;;;;;;14.57;8.55;;;;;;;-5.59;79.68;99201.50;5116943;27;20043;-69
2022/01/10 00:15:29;;;;;;;19.80;8.95;;;;;;;-5.57;79.73;99206.69;5121429;27;20049;-70
2022/01/10 00:17:54;;;;;;;18.17;8.82;;;;;;;-5.55;79.28;99200.59;5136439;27;20038;-69
2022/01/10 00:20:19;;;;;;;14.15;8.43;;;;;;;-5.51;79.28;99204.84;5118903;27;20075;-71
2022/01/10 00:22:47;;;;;;;15.38;8.23;;;;;;;-5.47;78.51;99199.63;5137318;27;20392;-72
2022/01/10 00:25:14;;;;;;;18.65;8.38;;;;;;;-5.43;78.79;99199.56;5118555;27;20090;-71
2022/01/10 00:27:40;;;;;;;12.95;7.50;;;;;;;-5.44;78.71;99190.03;5118400;27;20041;-72
2022/01/10 00:30:05;;;;;;;11.52;7.22;;;;;;;-5.42;78.57;99190.88;5137724;27;20125;-71
2022/01/10 00:32:30;;;;;;;11.88;6.88;;;;;;;-5.41;78.58;99195.19;5119552;27;20053;-71
2022/01/10 00:34:54;;;;;;;19.08;8.85;;;;;;;-5.42;78.52;99187.44;5119219;27;20038;-74
2022/01/10 00:37:19;;;;;;;15.73;9.18;;;;;;;-5.40;78.34;99196.03;5101269;27;20550;-70
2022/01/10 00:39:46;;;;;;;13.27;7.65;;;;;;;-5.39;78.20;99184.75;5118571;27;20134;-70
2022/01/10 00:42:13;;;;;;;14.25;7.15;;;;;;;-5.37;78.34;99201.19;5098547;27;20042;-72
2022/01/10 00:44:44;;;;;;;12.77;7.35;;;;;;;-5.37;78.64;99189.06;5076732;27;20426;-68
2022/01/10 00:47:09;;;;;;;15.38;8.35;;;;;;;-5.37;79.11;99185.59;5108119;27;20034;-73
2022/01/10 00:49:34;;;;;;;15.27;7.97;;;;;;;-5.37;78.43;99189.06;5126403;27;20038;-73
2022/01/10 00:51:58;;;;;;;13.40;7.70;;;;;;;-5.37;78.62;99186.47;5094602;27;20034;-67
2022/01/10 00:54:24;;;;;;;21.30;9.75;;;;;;;-5.36;78.63;99192.53;5106107;27;20047;-72
2022/01/10 00:56:49;;;;;;;15.68;8.32;;;;;;;-5.38;78.10;99184.75;5098178;27;20041;-69
2022/01/10 00:59:14;;;;;;;16.08;8.30;;;;;;;-5.36;78.30;99182.13;5107724;27;20038;-71
2022/01/10 01:01:39;;;;;;;13.48;8.35;;;;;;;-5.34;78.35;99191.63;5089576;27;20031;-72
2022/01/10 01:04:04;;;;;;;14.52;7.68;;;;;;;-5.33;78.39;99180.34;5089545;27;20027;-72
2022/01/10 01:06:29;;;;;;;13.73;7.53;;;;;;;-5.31;77.90;99183.78;5105590;27;20069;-70
2022/01/10 01:08:59;;;;;;;14.43;8.25;;;;;;;-5.30;77.80;99182.88;5091048;27;20038;-70
2022/01/10 01:14:10;;;;;;;12.32;7.45;;;;;;;-5.28;78.25;99178.53;5107166;27;20042;-68
2022/01/10 01:19:51;;;;;;;12.55;7.20;;;;;;;-5.27;78.30;99174.19;5126575;27;20484;-70
2022/01/10 01:24:37;;;;;;;12.13;7.22;;;;;;;-5.26;78.48;99165.53;5107404;27;20093;-70
2022/01/10 01:27:02;;;;;;;17.15;9.25;;;;;;;-5.24;79.33;99163.75;5124528;27;20091;-70
2022/01/10 01:29:29;;;;;;;14.38;8.32;;;;;;;-5.31;79.08;99172.53;5104906;27;20081;-71
2022/01/10 01:31:55;;;;;;;16.20;8.18;;;;;;;-5.32;79.20;99163.03;5104915;27;20499;-68
2022/01/10 01:34:22;;;;;;;11.98;6.70;;;;;;;-5.31;79.19;99164.75;5090310;27;20051;-73
2022/01/10 01:36:51;;;;;;;11.98;7.72;;;;;;;-5.31;79.17;99164.75;5105577;27;20436;-66
2022/01/10 01:39:22;;;;;;;12.90;8.38;;;;;;;-5.32;78.96;99161.28;5088412;27;20098;-70
2022/01/10 01:41:56;;;;;;;12.75;7.07;;;;;;;-5.32;78.93;99160.44;5074095;27;20549;-66
2022/01/10 01:44:21;;;;;;;12.77;6.55;;;;;;;-5.32;78.79;99160.44;5088628;27;20058;-67
2022/01/10 01:46:46;;;;;;;12.73;7.30;;;;;;;-5.30;79.10;99150.84;5090229;27;20065;-67
2022/01/10 01:49:12;;;;;;;11.77;7.32;;;;;;;-5.29;78.63;99150.81;5105381;27;20445;-76
2022/01/10 01:51:37;;;;;;;11.88;7.38;;;;;;;-5.27;78.79;99161.19;5076838;27;20134;-69
2022/01/10 01:54:03;;;;;;;16.48;7.65;;;;;;;-5.27;78.67;99150.81;5090301;27;20039;-74
2022/01/10 01:56:28;;;;;;;12.35;7.03;;;;;;;-5.27;78.50;99156.88;5090042;27;20043;-76
2022/01/10 01:58:54;;;;;;;17.23;7.88;;;;;;;-5.26;78.60;99157.72;5095713;27;20042;-71
2022/01/10 02:01:20;;;;;;;14.02;7.75;;;;;;;-5.27;79.05;99158.59;5106813;27;20100;-72
2022/01/10 02:03:47;;;;;;;9.77;7.45;;;;;;;-5.27;78.34;99148.22;5106158;27;20062;-72
2022/01/10 02:06:16;;;;;;;11.80;6.25;;;;;;;-5.25;78.39;99146.44;5105286;27;20047;-76
2022/01/10 02:08:41;;;;;;;8.60;4.43;;;;;;;-5.09;79.24;99141.88;5106724;27;20034;-78
2022/01/10 02:11:09;;;;;;;17.38;8.02;;;;;;;-5.17;80.31;99147.19;5106883;27;20163;-68
2022/01/10 02:13:34;;;;;;;12.40;7.40;;;;;;;-5.26;80.04;99160.31;5104349;27;20515;-72
2022/01/10 02:16:09;;;;;;;13.40;7.40;;;;;;;-5.26;80.00;99140.41;5096148;27;20595;-74
2022/01/10 02:18:37;;;;;;;15.10;6.97;;;;;;;-5.28;80.46;99152.53;5088955;27;20041;-76
2022/01/10 02:21:05;;;;;;;15.98;8.10;;;;;;;-5.25;80.44;99147.31;5107678;27;20026;-70
2022/01/10 02:23:33;;;;;;;11.70;7.80;;;;;;;-5.27;80.55;99143.00;5092020;27;20045;-69
2022/01/10 02:26:21;;;;;;;12.77;6.57;;;;;;;-5.26;80.13;99143.00;5124441;27;20548;-70
2022/01/10 02:28:46;;;;;;;15.77;8.57;;;;;;;-5.26;80.03;99144.72;5091522;27;20030;-74
2022/01/10 02:31:11;;;;;;;15.43;6.93;;;;;;;-5.22;80.50;99147.28;5090871;27;20041;-73
2022/01/10 02:33:36;;;;;;;14.73;7.93;;;;;;;-5.26;80.75;99147.34;5087448;27;20078;-72
2022/01/10 02:38:35;;;;;;;13.68;7.40;;;;;;;-5.28;80.37;99146.50;5104340;27;20050;-70
2022/01/10 02:41:00;;;;;;;16.65;9.27;;;;;;;-5.27;80.52;99141.28;5126477;27;20034;-70
2022/01/10 02:43:26;;;;;;;12.73;7.03;;;;;;;-5.27;80.67;99143.88;5109756;27;20484;-69
2022/01/10 02:45:51;;;;;;;9.02;5.80;;;;;;;-5.28;80.73;99142.16;5108153;27;20560;-70
2022/01/10 02:48:16;;;;;;;13.77;7.40;;;;;;;-5.34;80.74;99137.06;5107832;27;20054;-71
2022/01/10 02:50:42;;;;;;;13.82;7.88;;;;;;;-5.34;80.86;99141.41;5109502;27;20045;-72
2022/01/10 02:53:06;;;;;;;12.60;7.85;;;;;;;-5.33;81.32;99144.00;5127729;27;20121;-68
2022/01/10 02:55:33;;;;;;;17.45;7.38;;;;;;;-5.32;80.53;99150.91;5107432;27;20463;-64
2022/01/10 02:57:59;;;;;;;13.15;7.22;;;;;;;-5.32;80.71;99147.44;5109773;27;20038;-64
2022/01/10 03:00:25;;;;;;;13.57;7.45;;;;;;;-5.29;80.72;99148.22;5092903;27;20034;-65
2022/01/10 03:02:52;;;;;;;13.38;8.15;;;;;;;-5.29;80.34;99147.38;5126796;27;20042;-65
2022/01/10 03:05:20;;;;;;;14.65;8.35;;;;;;;-5.28;80.59;99142.16;5090915;27;20035;-67
2022/01/10 03:07:46;;;;;;;17.92;8.55;;;;;;;-5.29;79.92;99144.78;5099107;27;20772;-72
2022/01/10 03:10:11;;;;;;;15.30;7.68;;;;;;;-5.29;80.14;99140.44;5099956;27;20053;-71
2022/01/10 03:12:37;;;;;;;13.90;8.25;;;;;;;-5.27;79.98;99153.41;5099979;27;20492;-69
2022/01/10 03:15:04;;;;;;;15.43;9.57;;;;;;;-5.26;79.93;99163.78;5118458;27;20552;-68
2022/01/10 03:17:30;;;;;;;14.52;8.07;;;;;;;-5.24;79.78;99158.56;5099774;27;20508;-70
2022/01/10 03:19:55;;;;;;;12.93;7.57;;;;;;;-5.22;79.65;99157.66;5118198;27;20083;-66
2022/01/10 03:22:20;;;;;;;14.25;8.88;;;;;;;-5.20;79.93;99155.03;5099283;27;20035;-68
2022/01/10 03:24:45;;;;;;;15.02;7.50;;;;;;;-5.20;80.08;99152.44;5099353;27;20042;-68
2022/01/10 03:27:10;;;;;;;15.32;8.32;;;;;;;-5.19;79.62;99157.59;5082294;27;20035;-66
2022/01/10 03:29:35;;;;;;;11.55;7.47;;;;;;;-5.17;79.70;99160.16;5086268;27;20039;-70
2022/01/10 03:32:02;;;;;;;13.52;8.63;;;;;;;-5.17;79.73;99163.63;5100084;27;20070;-63
2022/01/10 03:34:26;;;;;;;13.02;8.45;;;;;;;-5.16;79.92;99164.47;5099965;27;20114;-62
2022/01/10 03:36:51;;;;;;;14.57;7.60;;;;;;;-5.16;79.73;99169.69;5118573;27;20042;-62
2022/01/10 03:39:16;;;;;;;14.57;8.40;;;;;;;-5.17;79.99;99171.41;5100154;27;20121;-63
2022/01/10 03:41:41;;;;;;;13.10;7.40;;;;;;;-5.17;79.74;99166.22;5099847;27;20044;-62
2022/01/10 03:44:07;;;;;;;18.30;8.27;;;;;;;-5.16;79.81;99173.13;5082648;27;20058;-63
2022/01/10 03:46:33;;;;;;;16.83;8.93;;;;;;;-5.18;79.64;99172.31;5099593;27;20041;-65
2022/01/10 03:49:00;;;;;;;11.23;7.00;;;;;;;-5.17;79.99;99160.16;5081925;27;20042;-67
2022/01/10 03:51:25;;;;;;;15.65;8.02;;;;;;;-5.17;79.66;99171.41;5099138;27;20041;-64
2022/01/10 03:53:50;;;;;;;24.02;9.27;;;;;;;-5.08;80.40;99170.44;5081660;27;20038;-64
2022/01/10 03:56:14;;;;;;;15.25;8.82;;;;;;;-5.17;80.51;99170.56;5099978;27;20046;-67
2022/01/10 03:58:43;;;;;;;17.33;10.20;;;;;;;-5.20;80.35;99178.44;5093782;27;20043;-67
2022/01/10 04:01:09;;;;;;;15.80;8.50;;;;;;;-5.23;80.38;99176.72;5107614;27;20114;-67
2022/01/10 04:03:38;;;;;;;17.55;9.73;;;;;;;-5.23;80.12;99168.06;5110386;27;20054;-65
2022/01/10 04:06:10;;;;;;;13.95;8.10;;;;;;;-5.25;80.79;99175.88;5107335;27;20115;-65
2022/01/10 04:08:36;;;;;;;14.88;8.15;;;;;;;-5.29;80.29;99171.63;5109278;27;20044;-66
2022/01/10 04:11:01;;;;;;;12.82;7.43;;;;;;;-5.30;79.78;99182.88;5127216;27;20042;-67
2022/01/10 04:13:27;;;;;;;14.23;8.73;;;;;;;-5.26;80.34;99178.50;5107375;27;20042;-66
2022/01/10 04:15:52;;;;;;;18.27;8.48;;;;;;;-5.31;80.83;99172.53;5109552;27;20048;-65
2022/01/10 04:18:17;;;;;;;18.10;9.43;;;;;;;-5.34;80.77;99169.97;5107837;27;20034;-67
2022/01/10 04:20:44;;;;;;;13.57;8.32;;;;;;;-5.37;80.55;99173.47;5107957;27;20130;-67
2022/01/10 04:23:09;;;;;;;13.98;8.50;;;;;;;-5.36;80.77;99176.94;5128312;27;20590;-67
2022/01/10 04:25:34;;;;;;;15.80;7.85;;;;;;;-5.38;80.67;99182.16;5095731;27;20559;-65
2022/01/10 04:27:59;;;;;;;14.55;8.50;;;;;;;-5.36;81.17;99180.41;5092636;27;20030;-67
2022/01/10 04:30:28;;;;;;;14.70;7.47;;;;;;;-5.37;80.69;99183.88;5125725;27;20141;-65
2022/01/10 04:32:53;;;;;;;13.68;7.65;;;;;;;-5.36;80.96;99174.34;5110055;27;20050;-66
2022/01/10 04:35:18;;;;;;;16.60;8.57;;;;;;;-5.34;81.07;99189.03;5109920;27;20061;-65
2022/01/10 04:37:42;;;;;;;17.80;10.57;;;;;;;-5.39;81.12;99183.03;5130793;27;20445;-66
2022/01/10 04:40:09;;;;;;;14.23;8.02;;;;;;;-5.37;81.23;99183.00;5093862;27;20061;-65
2022/01/10 04:42:35;;;;;;;13.68;8.00;;;;;;;-5.38;81.52;99181.28;5109789;27;20030;-65
2022/01/10 04:44:59;;;;;;;14.18;8.38;;;;;;;-5.41;81.28;99184.78;5114731;27;20487;-66
2022/01/10 11:42:22;;;;;;;8.18;4.45;;;;;;;-4.71;80.54;99352.69;5046841;24;20104;-67
2022/01/10 11:45:08;;;;;;;10.25;5.45;;;;;;;-4.74;79.99;99354.47;4807278;29;20091;-66
2022/01/10 11:48:01;;;;;;;8.23;4.97;;;;;;;-4.73;80.66;99353.56;4790957;29;20062;-68
2022/01/10 11:50:28;;;;;;;6.70;4.25;;;;;;;-4.80;79.94;99358.00;4791494;29;20202;-72
2022/01/10 11:52:54;;;;;;;9.60;5.88;;;;;;;-4.79;79.88;99355.41;4791806;29;20061;-68
2022/01/10 11:55:19;;;;;;;7.10;4.18;;;;;;;-4.78;79.78;99358.84;4791387;29;20050;-69
2022/01/10 11:57:45;;;;;;;12.30;4.85;;;;;;;-4.74;79.87;99363.16;4791433;29;20049;-68
2022/01/10 12:00:13;;;;;;;7.43;4.80;;;;;;;-4.78;79.80;99364.91;4791840;29;20049;-68
2022/01/10 12:02:37;;;;;;;8.25;4.53;;;;;;;-4.79;79.13;99370.13;4808714;29;20096;-69
2022/01/10 12:05:05;;;;;;;14.50;5.07;;;;;;;-4.79;79.08;99390.94;4791897;29;20037;-68
2022/01/10 12:07:30;;;;;;;4.57;3.50;;;;;;;-4.79;79.56;99386.59;4809630;29;20508;-69
2022/01/10 12:09:57;;;;;;;10.02;4.53;;;;;;;-4.80;79.60;99389.22;4808794;29;20531;-70
2022/01/10 12:12:29;;;;;;;6.88;3.85;;;;;;;-4.78;79.61;99408.25;4809317;29;20046;-71
2022/01/10 12:14:56;;;;;;;6.70;4.18;;;;;;;-4.81;79.14;99408.28;4793407;29;20045;-71
2022/01/10 12:17:20;;;;;;;7.32;4.13;;;;;;;-4.78;80.18;99409.13;4792942;29;20058;-70
2022/01/10 12:19:45;;;;;;;9.95;4.90;;;;;;;-4.78;79.01;99393.53;4776428;29;20106;-71
2022/01/10 12:22:10;;;;;;;6.20;3.80;;;;;;;-4.77;79.76;99397.84;4791829;29;20504;-72
2022/01/10 12:24:37;;;;;;;7.75;4.60;;;;;;;-4.79;79.77;99402.19;4807748;29;20100;-70
2022/01/10 12:27:03;;;;;;;6.75;3.88;;;;;;;-4.81;79.71;99409.16;4791161;29;20170;-68
2022/01/10 12:29:30;;;;;;;6.05;3.65;;;;;;;-4.84;79.01;99411.78;4790843;29;20050;-67
2022/01/10 12:31:55;;;;;;;7.82;3.85;;;;;;;-4.82;79.55;99410.03;4791797;29;20058;-67
2022/01/10 12:34:22;;;;;;;6.18;3.50;;;;;;;-4.84;79.82;99409.19;4808529;29;20110;-71
2022/01/10 12:36:47;;;;;;;8.77;3.83;;;;;;;-4.87;79.82;99419.66;4806158;29;20049;-74
2022/01/10 12:39:18;;;;;;;8.73;4.50;;;;;;;-4.89;79.44;99416.22;4790900;29;20514;-73
2022/01/10 12:41:43;;;;;;;5.28;3.15;;;;;;;-4.89;79.55;99417.94;4807414;29;20208;-74
2022/01/10 12:44:08;;;;;;;5.43;3.60;;;;;;;-4.91;79.35;99419.69;4807039;29;20046;-71
2022/01/10 12:46:36;;;;;;;7.47;4.00;;;;;;;-4.90;79.61;99414.50;4806632;29;20505;-72
2022/01/10 12:49:03;;;;;;;8.82;3.85;;;;;;;-4.90;79.57;99421.44;4801506;29;20628;-74
2022/01/10 12:51:36;;;;;;;5.82;4.75;;;;;;;-4.90;79.85;99416.22;4806044;29;20050;-73
2022/01/10 12:54:04;;;;;;;6.95;4.25;;;;;;;-4.91;79.92;99423.16;4790823;29;20045;-77
2022/01/10 12:56:29;;;;;;;7.30;3.63;;;;;;;-4.92;79.99;99421.44;4806936;29;20145;-71
2022/01/10 12:58:54;;;;;;;5.10;4.22;;;;;;;-4.95;80.65;99441.41;4806263;29;20132;-71
2022/01/10 13:01:22;;;;;;;4.88;3.10;;;;;;;-4.98;80.24;99439.72;4774336;29;20057;-70
2022/01/10 13:03:54;;;;;;;7.68;4.03;;;;;;;-4.98;80.22;99446.66;4789279;29;20052;-70
2022/01/10 13:06:21;;;;;;;7.75;4.05;;;;;;;-4.99;80.93;99444.94;4805576;29;20111;-71
2022/01/10 13:08:47;;;;;;;14.63;4.40;;;;;;;-5.00;80.76;99448.41;4788977;29;20050;-72
2022/01/10 13:11:16;;;;;;;8.10;4.50;;;;;;;-5.02;80.63;99444.97;4756568;29;20045;-73
2022/01/10 13:13:45;;;;;;;7.18;4.28;;;;;;;-5.03;79.92;99448.44;4787991;29;20050;-72
2022/01/10 13:16:27;;;;;;;7.85;4.50;;;;;;;-5.01;79.73;99454.50;4771524;29;20098;-71
2022/01/10 13:19:00;;;;;;;5.25;3.63;;;;;;;-5.02;80.43;99448.44;4787816;29;20134;-73
2022/01/10 13:21:46;;;;;;;7.07;4.22;;;;;;;-4.97;80.61;99456.19;4788043;29;20111;-72
2022/01/10 13:24:17;;;;;;;8.75;3.97;;;;;;;-5.02;80.29;99456.22;4787519;29;20050;-71
2022/01/10 13:27:21;;;;;;;11.77;4.40;;;;;;;-4.99;80.59;99451.00;4787864;29;20106;-68
2022/01/10 13:29:51;;;;;;;5.13;3.75;;;;;;;-5.00;79.88;99453.63;4731853;30;20059;-72
2022/01/10 13:32:19;;;;;;;6.05;4.00;;;;;;;-4.98;80.28;99467.47;4731567;30;20055;-71
2022/01/10 13:34:45;;;;;;;6.80;3.67;;;;;;;-4.96;80.04;99471.72;4731510;30;20094;-70
2022/01/10 13:37:11;;;;;;;7.68;4.55;;;;;;;-4.93;80.28;99468.25;4731706;30;20055;-69
2022/01/10 13:39:36;;;;;;;9.07;3.88;;;;;;;-4.94;80.36;99469.97;4731903;30;20083;-69
2022/01/10 13:42:05;;;;;;;7.18;4.10;;;;;;;-4.92;79.87;99476.03;4731096;30;20067;-69
2022/01/10 13:44:31;;;;;;;9.05;3.70;;;;;;;-4.95;79.63;99483.84;4731447;30;20542;-69
2022/01/10 13:47:06;;;;;;;7.88;4.25;;;;;;;-4.90;79.90;99474.28;4731452;30;20066;-70
2022/01/10 13:49:33;;;;;;;7.90;3.15;;;;;;;-4.91;79.81;99479.50;4731469;30;20126;-70
2022/01/10 13:52:12;;;;;;;6.40;3.33;;;;;;;-4.86;80.00;99482.91;4731430;30;20143;-69
2022/01/10 13:54:37;;;;;;;8.82;4.18;;;;;;;-4.85;80.46;99477.66;4731158;30;20097;-70
2022/01/10 13:57:26;;;;;;;7.35;4.22;;;;;;;-4.82;80.08;99485.44;4731742;30;20051;-69
2022/01/10 14:00:11;;;;;;;7.25;3.97;;;;;;;-4.84;80.29;99486.31;4730815;30;20146;-69
2022/01/10 14:02:40;;;;;;;8.13;4.17;;;;;;;-4.85;80.24;99484.59;4716579;30;20119;-69
2022/01/10 14:05:21;;;;;;;6.93;4.72;;;;;;;-4.80;79.72;99488.88;4747247;29;20348;-69
2022/01/10 14:07:47;;;;;;;8.18;4.85;;;;;;;-4.81;79.87;99501.91;4769724;29;20047;-69
2022/01/10 14:10:11;;;;;;;7.13;4.75;;;;;;;-4.81;80.14;99502.75;4767951;29;20077;-68
2022/01/10 14:12:36;;;;;;;7.00;4.30;;;;;;;-4.76;79.88;99506.19;4769017;29;20079;-70
2022/01/10 14:15:01;;;;;;;10.00;4.50;;;;;;;-4.78;79.56;99505.34;4769058;29;20157;-69
2022/01/10 14:17:26;;;;;;;8.18;4.88;;;;;;;-4.81;78.86;99500.16;4768580;29;20104;-69
2022/01/10 14:19:51;;;;;;;8.55;4.97;;;;;;;-4.79;79.30;99503.59;4767772;29;20473;-69
2022/01/10 14:22:18;;;;;;;8.77;4.55;;;;;;;-4.74;79.55;99518.31;4767478;29;20483;-69
2022/01/10 14:24:45;;;;;;;8.68;4.55;;;;;;;-4.71;79.47;99507.84;4769042;29;20051;-68
2022/01/10 14:27:10;;;;;;;11.20;5.63;;;;;;;-4.68;79.75;99515.63;4768597;29;20553;-69
2022/01/10 14:29:35;;;;;;;8.35;4.95;;;;;;;-4.65;79.45;99526.00;4767741;29;20506;-69
2022/01/10 14:32:09;;;;;;;9.45;5.07;;;;;;;-4.64;79.50;99523.38;4769063;29;20100;-68
2022/01/10 14:34:38;;;;;;;9.50;5.55;;;;;;;-4.64;79.38;99525.13;4768875;29;20512;-69
2022/01/10 14:37:04;;;;;;;8.98;4.68;;;;;;;-4.63;79.16;99526.84;4769159;29;20485;-68
2022/01/10 14:39:29;;;;;;;8.60;5.20;;;;;;;-4.63;79.12;99539.84;4772665;29;20514;-69
2022/01/10 14:41:54;;;;;;;11.38;5.20;;;;;;;-4.63;78.71;99535.50;4779495;29;20552;-69
2022/01/10 14:44:20;;;;;;;7.57;4.32;;;;;;;-4.60;78.62;99542.38;4773791;29;20043;-68
2022/01/10 14:46:51;;;;;;;8.02;4.78;;;;;;;-4.60;79.02;99538.03;4790175;29;20429;-69
2022/01/10 14:49:18;;;;;;;7.07;4.35;;;;;;;-4.59;78.86;99544.09;4791551;29;20069;-69
2022/01/10 14:51:43;;;;;;;9.93;4.57;;;;;;;-4.61;78.48;99548.47;4792136;29;20081;-69
2022/01/10 14:54:07;;;;;;;8.13;5.03;;;;;;;-4.62;77.91;99554.53;4784370;29;20079;-69
2022/01/10 14:56:34;;;;;;;9.27;4.25;;;;;;;-4.63;77.75;99548.50;4774084;29;20057;-69
2022/01/10 14:59:02;;;;;;;7.82;4.68;;;;;;;-4.61;78.31;99546.72;4791674;29;20463;-69
2022/01/10 15:01:30;;;;;;;9.80;5.45;;;;;;;-4.63;78.63;99561.50;4774252;29;20106;-70
2022/01/10 15:03:58;;;;;;;7.50;4.40;;;;;;;-4.68;78.94;99557.22;4791601;29;20074;-70
2022/01/10 15:06:23;;;;;;;10.48;4.68;;;;;;;-4.72;78.64;99561.59;4774806;29;20058;-68
2022/01/10 15:08:52;;;;;;;9.20;4.93;;;;;;;-4.72;79.18;99564.19;4790923;29;20408;-69
2022/01/10 15:11:19;;;;;;;7.10;4.32;;;;;;;-4.75;79.35;99572.06;4790969;29;20135;-69
2022/01/10 15:13:44;;;;;;;14.02;5.28;;;;;;;-4.80;79.80;99571.22;4788996;29;20042;-74
2022/01/10 15:16:12;;;;;;;8.35;4.65;;;;;;;-4.79;79.19;99573.81;4789571;29;20090;-75
2022/01/10 15:18:37;;;;;;;11.27;5.70;;;;;;;-4.78;79.85;99578.16;4773521;29;20107;-75
2022/01/10 15:21:02;;;;;;;5.60;4.43;;;;;;;-4.78;80.00;99578.16;4773306;29;20498;-74
2022/01/10 15:23:33;;;;;;;9.68;5.18;;;;;;;-4.76;79.31;99581.59;4789884;29;20514;-74
2022/01/10 15:26:00;;;;;;;8.88;4.80;;;;;;;-4.74;79.62;99583.31;4790365;29;20085;-74
2022/01/10 15:28:27;;;;;;;10.40;5.65;;;;;;;-4.76;79.66;99593.72;4773671;29;20046;-74
2022/01/10 15:30:53;;;;;;;9.60;5.32;;;;;;;-4.78;79.56;99592.88;4780790;29;20102;-73
2022/01/10 15:33:19;;;;;;;7.80;4.60;;;;;;;-4.80;79.90;99600.69;4760972;29;20465;-72
2022/01/10 15:35:45;;;;;;;10.07;5.55;;;;;;;-4.83;80.31;99595.50;4808079;29;20053;-74
2022/01/10 15:38:10;;;;;;;10.55;4.97;;;;;;;-4.90;79.73;99596.47;4808135;29;20050;-74
2022/01/10 15:40:35;;;;;;;8.63;5.13;;;;;;;-4.97;79.71;99604.34;4807776;29;20061;-74
2022/01/10 15:43:00;;;;;;;10.18;5.07;;;;;;;-5.00;79.85;99605.25;4776171;29;20474;-74
2022/01/10 15:45:31;;;;;;;8.63;5.07;;;;;;;-5.03;79.85;99612.19;4807772;29;20584;-73
2022/01/10 15:48:20;;;;;;;9.55;4.93;;;;;;;-5.01;80.04;99624.31;4791084;29;20114;-72
2022/01/10 15:50:45;;;;;;;10.75;6.55;;;;;;;-5.01;79.87;99621.72;4807212;29;20045;-75
2022/01/10 15:53:11;;;;;;;11.07;5.22;;;;;;;-5.01;79.96;99623.44;4811643;29;20038;-75
2022/01/10 15:55:36;;;;;;;7.88;4.97;;;;;;;-5.03;80.41;99620.00;4821484;29;20050;-75
2022/01/10 15:58:03;;;;;;;10.55;5.38;;;;;;;-5.03;80.44;99628.66;4820887;29;20042;-73
2022/01/10 16:00:31;;;;;;;10.95;6.15;;;;;;;-5.08;80.51;99633.06;4812466;29;20057;-74
2022/01/10 16:02:57;;;;;;;14.48;6.22;;;;;;;-5.13;80.75;99643.47;4792312;29;20042;-73
2022/01/10 16:05:22;;;;;;;8.85;5.65;;;;;;;-5.14;80.43;99646.09;4808793;29;20505;-72
2022/01/10 16:07:48;;;;;;;8.23;4.75;;;;;;;-5.14;80.20;99651.28;4808469;29;20552;-73
2022/01/10 16:10:15;;;;;;;9.93;5.03;;;;;;;-5.18;80.76;99641.78;4808361;29;20056;-74
2022/01/10 16:12:42;;;;;;;9.77;5.70;;;;;;;-5.20;80.78;99654.81;4806708;29;20057;-73
2022/01/10 16:15:09;;;;;;;7.72;4.50;;;;;;;-5.19;81.00;99650.47;4806616;29;20050;-76
2022/01/10 16:17:36;;;;;;;15.40;5.47;;;;;;;-5.23;81.46;99664.34;4790181;29;20080;-74
2022/01/10 16:20:04;;;;;;;8.80;5.25;;;;;;;-5.29;81.96;99661.78;4790226;29;20069;-74
2022/01/10 16:22:31;;;;;;;8.35;5.45;;;;;;;-5.36;81.01;99675.69;4806270;29;20057;-74
2022/01/10 16:24:57;;;;;;;9.23;5.35;;;;;;;-5.38;81.36;99669.66;4791341;29;20046;-72
2022/01/10 16:30:12;;;;;;;10.65;5.65;;;;;;;-5.43;81.00;99679.22;4816269;29;20054;-75
2022/01/10 16:32:37;;;;;;;8.98;5.35;;;;;;;-5.45;80.88;99674.03;4816675;29;20053;-75
2022/01/10 16:35:28;;;;;;;9.88;5.57;;;;;;;-5.44;81.33;99673.16;4807536;29;20467;-73
2022/01/10 16:37:55;;;;;;;12.35;5.68;;;;;;;-5.51;80.63;99679.25;4806940;29;20054;-73
2022/01/10 16:40:21;;;;;;;10.38;5.50;;;;;;;-5.51;81.27;99674.06;4806625;29;20056;-73
2022/01/10 16:42:48;;;;;;;12.73;6.88;;;;;;;-5.53;80.92;99676.66;4809216;29;20153;-73
2022/01/10 16:45:13;;;;;;;10.27;5.43;;;;;;;-5.52;80.69;99678.38;4806961;29;20093;-71
2022/01/10 16:47:40;;;;;;;15.23;6.35;;;;;;;-5.48;81.36;99679.25;4806499;29;20391;-72
2022/01/10 16:50:36;;;;;;;10.38;6.07;;;;;;;-5.52;81.15;99681.00;4789945;29;20050;-73
2022/01/10 16:53:03;;;;;;;10.10;5.40;;;;;;;-5.52;80.95;99677.53;4806574;29;20074;-72
2022/01/10 16:55:29;;;;;;;9.77;5.38;;;;;;;-5.57;80.67;99680.16;4807950;29;20114;-73
2022/01/10 16:57:55;;;;;;;9.18;5.20;;;;;;;-5.56;79.96;99681.91;4806875;29;20119;-73
2022/01/10 17:00:23;;;;;;;9.60;5.45;;;;;;;-5.58;80.24;99686.22;4807262;29;20497;-73
2022/01/10 17:02:51;;;;;;;9.35;5.00;;;;;;;-5.54;80.26;99697.47;4808266;29;20435;-74
2022/01/10 17:05:19;;;;;;;10.02;6.22;;;;;;;-5.56;80.11;99694.88;4806438;29;20431;-73
2022/01/10 17:07:44;;;;;;;10.50;5.78;;;;;;;-5.55;79.94;99698.34;4789531;29;20081;-74
2022/01/10 17:10:11;;;;;;;9.07;5.60;;;;;;;-5.56;79.69;99707.88;4806024;29;20060;-74
2022/01/10 17:12:38;;;;;;;9.05;5.05;;;;;;;-5.54;79.93;99694.88;4799033;29;20050;-76
2022/01/10 17:15:04;;;;;;;9.48;5.13;;;;;;;-5.58;79.85;99694.03;4760755;29;20078;-74
2022/01/10 17:17:32;;;;;;;9.63;5.10;;;;;;;-5.59;79.66;99702.69;4809734;29;20042;-70
2022/01/10 17:19:58;;;;;;;9.40;5.80;;;;;;;-5.58;79.34;99700.94;4790223;29;20450;-69
2022/01/10 17:22:23;;;;;;;8.90;5.68;;;;;;;-5.52;79.98;99698.31;4774714;29;20053;-73
2022/01/10 17:24:50;;;;;;;8.63;5.18;;;;;;;-5.53;80.06;99702.63;4807895;29;20117;-74
2022/01/10 17:27:15;;;;;;;8.10;4.93;;;;;;;-5.53;79.71;99720.81;4808396;29;20148;-77
2022/01/10 17:29:40;;;;;;;10.48;5.95;;;;;;;-5.54;79.62;99710.47;4807979;29;20048;-78
2022/01/10 17:32:07;;;;;;;9.38;5.55;;;;;;;-5.55;79.56;99707.00;4776696;29;20045;-76
2022/01/10 17:34:33;;;;;;;9.50;5.53;;;;;;;-5.56;78.89;99717.41;4792066;29;20042;-78
2022/01/10 17:36:59;;;;;;;10.02;5.95;;;;;;;-5.52;79.51;99724.28;4792038;29;20136;-79
2022/01/10 17:39:25;;;;;;;11.23;5.72;;;;;;;-5.56;79.27;99723.44;4775961;29;20117;-77
2022/01/10 17:41:49;;;;;;;9.73;5.72;;;;;;;-5.58;80.02;99720.00;4777374;29;20099;-79
2022/01/10 17:44:20;;;;;;;8.43;5.55;;;;;;;-5.59;79.18;99725.19;4808231;29;20520;-73
2022/01/10 17:46:46;;;;;;;7.53;4.93;;;;;;;-5.59;78.91;99732.97;4776671;29;20037;-79
2022/01/10 17:49:16;;;;;;;9.45;4.85;;;;;;;-5.62;79.28;99731.25;4808953;29;20408;-80
2022/01/10 17:51:58;;;;;;;9.65;5.78;;;;;;;-5.56;79.65;99739.03;4762459;29;20046;-81
2022/01/10 17:54:26;;;;;;;8.95;5.10;;;;;;;-5.54;80.00;99739.91;4757070;29;20055;-76
2022/01/10 17:56:51;;;;;;;10.80;6.55;;;;;;;-5.59;79.63;99733.84;4769152;29;20668;-77
2022/01/10 17:59:19;;;;;;;7.65;4.70;;;;;;;-5.61;80.21;99734.72;4769950;29;20511;-78
2022/01/10 18:01:45;;;;;;;10.25;5.05;;;;;;;-5.64;79.77;99735.59;4754493;29;20498;-76
2022/01/10 18:04:10;;;;;;;8.18;5.22;;;;;;;-5.63;80.59;99742.50;4769407;29;20080;-73
2022/01/10 18:06:35;;;;;;;11.52;5.55;;;;;;;-5.65;80.13;99744.28;4754285;29;20054;-76
2022/01/10 18:09:01;;;;;;;9.02;6.53;;;;;;;-5.66;79.97;99742.56;4754919;29;20059;-75
2022/01/10 18:11:26;;;;;;;8.10;4.60;;;;;;;-5.64;80.36;99738.19;4755876;29;20057;-73
2022/01/10 18:13:52;;;;;;;10.35;5.75;;;;;;;-5.64;80.13;99740.78;4772147;29;20086;-75
2022/01/10 18:16:17;;;;;;;9.90;5.40;;;;;;;-5.62;80.27;99748.56;4756582;29;20043;-74
2022/01/10 18:18:44;;;;;;;9.75;6.22;;;;;;;-5.61;80.25;99748.56;4771601;29;20116;-73
2022/01/10 18:21:10;;;;;;;9.45;5.55;;;;;;;-5.59;80.00;99746.84;4772259;29;20542;-78
2022/01/10 18:23:36;;;;;;;11.10;5.50;;;;;;;-5.58;80.37;99740.78;4758511;29;20053;-76
2022/01/10 18:26:01;;;;;;;12.05;6.25;;;;;;;-5.55;80.41;99740.75;4801860;29;20092;-74
2022/01/10 18:28:27;;;;;;;8.45;4.97;;;;;;;-5.53;80.70;99757.19;4778201;29;20052;-75
2022/01/10 18:30:56;;;;;;;9.05;4.78;;;;;;;-5.52;80.23;99753.72;4780534;29;20073;-77
2022/01/10 18:33:31;;;;;;;10.35;5.47;;;;;;;-5.52;80.55;99751.13;4794468;29;20054;-78
2022/01/10 18:35:57;;;;;;;8.73;5.55;;;;;;;-5.51;80.27;99751.97;4779989;29;20045;-76
2022/01/10 18:38:24;;;;;;;10.82;5.47;;;;;;;-5.49;80.32;99747.66;4794024;29;20075;-77